createdAt,value
2018-11-11T00:02:13.963Z,14.07
2018-11-11T00:04:42.270Z,13.80
2018-11-11T00:07:11.270Z,12.68
2018-11-11T00:09:39.666Z,13.57
2018-11-11T00:12:08.005Z,12.53
2018-11-11T00:14:36.323Z,10.13
2018-11-11T00:17:04.673Z,11.30
2018-11-11T00:19:32.962Z,10.00
2018-11-11T00:22:01.264Z,10.33
2018-11-11T00:24:29.571Z,9.77
2018-11-11T00:26:57.920Z,10.20
2018-11-11T00:29:26.315Z,8.80
2018-11-11T00:31:54.696Z,9.93
2018-11-11T00:34:23.082Z,9.10
2018-11-11T00:36:51.747Z,8.83
2018-11-11T00:39:20.214Z,7.55
2018-11-11T00:41:48.910Z,8.00
2018-11-11T00:44:17.232Z,7.30
2018-11-11T00:46:45.507Z,7.08
2018-11-11T00:49:13.897Z,6.75
2018-11-11T00:51:42.258Z,6.30
2018-11-11T00:54:10.563Z,7.23
2018-11-11T00:56:38.884Z,7.90
2018-11-11T00:59:07.602Z,9.17
2018-11-11T01:01:35.879Z,8.70
2018-11-11T01:04:04.570Z,9.58
2018-11-11T01:06:32.964Z,10.30
2018-11-11T01:09:02.155Z,11.07
2018-11-11T01:11:30.555Z,10.07
2018-11-11T01:13:58.895Z,10.08
2018-11-11T01:16:27.257Z,10.20
2018-11-11T01:18:55.612Z,9.73
2018-11-11T01:21:24.018Z,8.57
2018-11-11T01:23:52.392Z,9.33
2018-11-11T01:26:20.657Z,10.38
2018-11-11T01:28:49.062Z,8.98
2018-11-11T01:31:17.406Z,8.60
2018-11-11T01:33:45.738Z,8.98
2018-11-11T01:36:14.059Z,8.13
2018-11-11T01:38:42.423Z,9.10
2018-11-11T01:41:10.770Z,8.83
2018-11-11T01:46:29.602Z,6.53
2018-11-11T01:48:58.143Z,7.30
2018-11-11T01:51:26.462Z,7.55
2018-11-11T01:53:54.734Z,7.90
2018-11-11T01:56:23.052Z,7.65
2018-11-11T01:58:51.399Z,9.70
2018-11-11T02:01:20.000Z,9.80
2018-11-11T02:03:48.363Z,9.30
2018-11-11T02:06:16.757Z,9.58
2018-11-11T02:08:45.092Z,11.35
2018-11-11T02:11:13.443Z,11.50
2018-11-11T02:13:41.945Z,10.50
2018-11-11T02:16:10.281Z,11.90
2018-11-11T02:18:38.658Z,12.70
2018-11-11T02:21:07.073Z,12.07
2018-11-11T02:23:35.850Z,11.10
2018-11-11T02:26:04.387Z,11.83
2018-11-11T02:28:32.983Z,11.95
2018-11-11T02:31:01.296Z,11.40
2018-11-11T02:33:29.647Z,11.97
2018-11-11T02:35:57.941Z,11.80
2018-11-11T02:38:26.312Z,12.60
2018-11-11T02:40:54.666Z,12.40
2018-11-11T02:43:22.972Z,11.70
2018-11-11T02:45:51.267Z,12.70
2018-11-11T02:48:19.654Z,10.23
2018-11-11T02:50:48.251Z,10.13
2018-11-11T02:53:16.646Z,9.98
2018-11-11T02:55:45.077Z,10.77
2018-11-11T02:58:13.691Z,11.57
2018-11-11T03:00:42.167Z,10.70
2018-11-11T03:03:11.058Z,10.80
2018-11-11T03:05:39.376Z,10.50
2018-11-11T03:08:07.746Z,11.70
2018-11-11T03:10:36.299Z,11.88
2018-11-11T03:13:04.999Z,12.30
2018-11-11T03:15:33.312Z,12.55
2018-11-11T03:18:01.621Z,10.87
2018-11-11T03:20:29.982Z,12.10
2018-11-11T03:22:58.447Z,10.72
2018-11-11T03:25:26.815Z,11.65
2018-11-11T03:27:55.223Z,10.20
2018-11-11T03:30:23.656Z,10.00
2018-11-11T03:32:52.145Z,8.03
2018-11-11T03:35:20.628Z,6.90
2018-11-11T03:37:49.176Z,4.78
2018-11-11T03:40:19.019Z,4.25
2018-11-11T03:42:47.837Z,4.25
2018-11-11T03:45:17.439Z,3.70
2018-11-11T03:47:46.731Z,3.93
2018-11-11T03:50:15.161Z,4.03
2018-11-11T03:52:44.046Z,4.80
2018-11-11T03:55:12.593Z,4.28
2018-11-11T03:57:41.039Z,3.93
2018-11-11T04:00:11.680Z,4.00
2018-11-11T04:02:39.994Z,3.87
2018-11-11T04:05:09.713Z,4.53
2018-11-11T04:07:38.211Z,4.67
2018-11-11T04:10:08.711Z,4.20
2018-11-11T04:12:36.943Z,4.70
2018-11-11T04:15:06.695Z,5.17
2018-11-11T04:17:35.382Z,4.60
2018-11-11T04:20:03.805Z,4.00
2018-11-11T04:22:32.173Z,4.90
2018-11-11T04:25:00.500Z,5.15
2018-11-11T04:27:29.056Z,4.80
2018-11-11T04:29:57.449Z,5.50
2018-11-11T04:32:25.901Z,4.60
2018-11-11T04:34:54.250Z,5.05
2018-11-11T04:37:22.586Z,5.50
2018-11-11T04:39:50.891Z,5.30
2018-11-11T04:42:19.182Z,4.35
2018-11-11T04:44:47.446Z,4.05
2018-11-11T04:47:15.798Z,4.30
2018-11-11T04:49:44.085Z,4.63
2018-11-11T04:52:12.438Z,4.73
2018-11-11T04:54:40.821Z,5.00
2018-11-11T04:57:09.181Z,4.33
2018-11-11T04:59:37.711Z,5.17
2018-11-11T05:02:06.081Z,4.77
2018-11-11T05:04:34.487Z,5.20
2018-11-11T05:07:02.768Z,5.80
2018-11-11T05:09:31.322Z,4.92
2018-11-11T05:11:59.680Z,4.80
2018-11-11T05:14:28.426Z,5.00
2018-11-11T05:16:56.806Z,4.90
2018-11-11T05:19:25.169Z,5.17
2018-11-11T05:21:53.544Z,5.00
2018-11-11T05:24:22.085Z,5.40
2018-11-11T05:26:50.715Z,5.08
2018-11-11T05:29:19.132Z,4.93
2018-11-11T05:31:47.451Z,5.40
2018-11-11T05:34:15.991Z,5.10
2018-11-11T05:36:44.299Z,5.83
2018-11-11T05:39:13.782Z,5.62
2018-11-11T05:41:42.355Z,5.20
2018-11-11T05:44:11.113Z,4.60
2018-11-11T05:46:40.154Z,5.28
2018-11-11T05:49:08.546Z,5.50
2018-11-11T05:51:36.844Z,5.30
2018-11-11T05:54:05.339Z,6.40
2018-11-11T05:56:33.936Z,8.20
2018-11-11T05:59:02.649Z,6.08
2018-11-11T06:01:30.926Z,6.62
2018-11-11T06:03:59.919Z,5.80
2018-11-11T06:06:28.300Z,5.70
2018-11-11T06:08:56.998Z,5.00
2018-11-11T06:11:25.365Z,5.20
2018-11-11T06:13:53.737Z,5.47
2018-11-11T06:16:22.123Z,4.70
2018-11-11T06:18:50.690Z,5.65
2018-11-11T06:21:19.242Z,6.00
2018-11-11T06:23:47.657Z,5.20
2018-11-11T06:26:16.019Z,11.45
2018-11-11T06:28:44.341Z,10.37
2018-11-11T06:31:12.695Z,6.20
2018-11-11T06:33:41.256Z,4.73
2018-11-11T06:36:09.786Z,5.53
2018-11-11T06:38:38.264Z,15.75
2018-11-11T06:41:06.843Z,6.33
2018-11-11T06:43:35.110Z,9.20
2018-11-11T06:46:04.585Z,7.58
2018-11-11T06:48:33.100Z,6.58
2018-11-11T06:51:01.443Z,6.13
2018-11-11T06:53:29.962Z,6.23
2018-11-11T06:55:58.475Z,5.80
2018-11-11T06:58:27.211Z,6.45
2018-11-11T07:00:55.691Z,6.15
2018-11-11T07:03:35.455Z,6.50
2018-11-11T07:06:03.977Z,6.25
2018-11-11T07:08:32.403Z,7.05
2018-11-11T07:11:00.711Z,6.20
2018-11-11T07:13:28.925Z,7.17
2018-11-11T07:15:57.254Z,8.00
2018-11-11T07:18:26.067Z,7.90
2018-11-11T07:20:54.370Z,9.80
2018-11-11T07:23:22.946Z,9.05
2018-11-11T07:25:51.392Z,10.20
2018-11-11T07:28:19.698Z,9.10
2018-11-11T07:30:47.921Z,9.30
2018-11-11T07:33:16.451Z,9.95
2018-11-11T07:35:44.738Z,9.65
2018-11-11T07:38:13.114Z,9.63
2018-11-11T07:40:41.324Z,9.93
2018-11-11T07:43:09.530Z,10.33
2018-11-11T07:45:38.007Z,10.23
2018-11-11T07:48:06.684Z,10.63
2018-11-11T07:50:35.270Z,10.47
2018-11-11T07:53:03.898Z,11.30
2018-11-11T07:55:32.687Z,10.70
2018-11-11T07:58:01.024Z,12.10
2018-11-11T08:00:29.371Z,11.25
2018-11-11T08:02:57.655Z,10.70
2018-11-11T08:05:26.052Z,11.10
2018-11-11T08:07:54.488Z,10.72
2018-11-11T08:10:34.000Z,10.75
2018-11-11T08:13:02.442Z,11.10
2018-11-11T08:15:30.839Z,11.93
2018-11-11T08:17:59.355Z,10.77
2018-11-11T08:20:27.936Z,11.73
2018-11-11T08:22:56.516Z,10.10
2018-11-11T08:25:24.734Z,10.08
2018-11-11T08:27:53.144Z,11.53
2018-11-11T08:30:22.608Z,9.83
2018-11-11T08:32:51.230Z,11.35
2018-11-11T08:35:19.611Z,12.50
2018-11-11T08:37:47.966Z,11.85
2018-11-11T08:40:16.704Z,11.05
2018-11-11T08:42:45.284Z,12.55
2018-11-11T08:45:14.430Z,10.95
2018-11-11T08:47:43.756Z,10.58
2018-11-11T08:50:13.080Z,10.57
2018-11-11T08:52:42.070Z,10.60
2018-11-11T08:55:11.185Z,9.88
2018-11-11T08:57:39.538Z,9.00
2018-11-11T09:00:10.685Z,9.47
2018-11-11T09:02:39.274Z,8.10
2018-11-11T09:05:07.697Z,8.88
2018-11-11T09:07:37.284Z,7.27
2018-11-11T09:10:07.319Z,7.50
2018-11-11T09:12:36.259Z,6.57
2018-11-11T09:15:05.834Z,6.60
2018-11-11T09:17:34.132Z,7.37
2018-11-11T09:20:02.419Z,5.63
2018-11-11T09:22:30.650Z,5.87
2018-11-11T09:24:59.053Z,6.10
2018-11-11T09:27:27.773Z,5.70
2018-11-11T09:29:56.210Z,4.67
2018-11-11T09:32:25.344Z,4.80
2018-11-11T09:34:53.645Z,4.72
2018-11-11T09:37:22.323Z,4.03
2018-11-11T09:39:50.695Z,3.60
2018-11-11T09:42:18.997Z,3.50
2018-11-11T09:44:47.663Z,4.80
2018-11-11T09:47:16.178Z,4.70
2018-11-11T09:49:44.880Z,4.03
2018-11-11T09:52:13.338Z,3.40
2018-11-11T09:54:42.179Z,3.67
2018-11-11T09:57:11.639Z,2.93
2018-11-11T09:59:40.289Z,4.10
2018-11-11T10:02:08.870Z,2.77
2018-11-11T10:04:47.653Z,2.50
2018-11-11T10:07:22.852Z,3.10
2018-11-11T10:09:56.798Z,2.53
2018-11-11T10:12:28.885Z,2.80
2018-11-11T10:15:08.783Z,3.07
2018-11-11T10:17:47.455Z,2.40
2018-11-11T10:20:24.242Z,2.60
2018-11-11T10:22:58.107Z,2.90
2018-11-11T10:25:32.287Z,2.23
2018-11-11T10:28:41.320Z,2.77
2018-11-11T10:34:03.178Z,2.73
2018-11-11T10:36:38.923Z,2.40
2018-11-11T10:39:21.405Z,2.57
2018-11-11T10:41:54.482Z,2.60
2018-11-11T10:46:33.044Z,2.83
2018-11-11T10:49:03.623Z,2.30
2018-11-11T10:51:32.704Z,2.83
2018-11-11T10:54:01.305Z,1.90
2018-11-11T10:56:30.016Z,2.30
2018-11-11T10:58:58.503Z,2.40
2018-11-11T11:01:31.296Z,2.40
2018-11-11T11:04:00.469Z,3.53
2018-11-11T11:06:34.842Z,2.17
2018-11-11T11:09:11.091Z,2.30
2018-11-11T11:11:42.079Z,2.53
2018-11-11T11:14:12.150Z,2.17
2018-11-11T11:16:42.631Z,2.30
2018-11-11T11:19:12.209Z,2.03
2018-11-11T11:21:41.333Z,1.63
2018-11-11T11:24:09.647Z,1.83
2018-11-11T11:26:37.917Z,1.90
2018-11-11T11:29:06.257Z,1.97
2018-11-11T11:31:34.794Z,1.90
2018-11-11T11:34:04.047Z,3.13
2018-11-11T11:36:37.399Z,3.40
2018-11-11T11:39:08.499Z,1.57
2018-11-11T11:41:37.073Z,2.30
2018-11-11T11:44:07.274Z,2.00
2018-11-11T11:46:36.745Z,1.60
2018-11-11T11:49:06.585Z,1.63
2018-11-11T11:51:34.913Z,1.70
2018-11-11T11:54:03.194Z,2.43
2018-11-11T11:56:31.539Z,2.30
2018-11-11T11:58:59.758Z,2.17
2018-11-11T12:01:28.043Z,1.80
2018-11-11T12:03:56.548Z,1.70
2018-11-11T12:06:24.830Z,1.80
2018-11-11T12:08:53.227Z,2.17
2018-11-11T12:11:21.491Z,2.33
2018-11-11T12:13:50.038Z,2.00
2018-11-11T12:16:19.112Z,2.07
2018-11-11T12:18:47.848Z,2.40
2018-11-11T12:21:16.288Z,1.87
2018-11-11T12:23:45.387Z,2.20
2018-11-11T12:26:13.823Z,2.20
2018-11-11T12:28:42.680Z,1.90
2018-11-11T12:31:13.319Z,2.07
2018-11-11T12:33:43.265Z,2.60
2018-11-11T12:36:12.062Z,2.30
2018-11-11T12:38:40.866Z,1.83
2018-11-11T12:41:09.251Z,1.60
2018-11-11T12:43:38.164Z,1.93
2018-11-11T12:46:06.925Z,1.90
2018-11-11T12:48:35.282Z,1.60
2018-11-11T12:51:03.751Z,1.57
2018-11-11T12:53:32.155Z,1.70
2018-11-11T12:56:00.568Z,1.60
2018-11-11T12:58:29.911Z,1.77
2018-11-11T13:00:58.749Z,1.80
2018-11-11T13:03:30.563Z,1.90
2018-11-11T13:05:59.507Z,1.40
2018-11-11T13:08:28.031Z,1.83
2018-11-11T13:10:56.663Z,1.83
2018-11-11T13:13:25.352Z,1.90
2018-11-11T13:15:53.883Z,2.03
2018-11-11T13:18:23.234Z,1.60
2018-11-11T13:20:52.448Z,1.70
2018-11-11T13:23:21.014Z,2.20
2018-11-11T13:25:49.562Z,1.90
2018-11-11T13:28:18.250Z,1.97
2018-11-11T13:30:46.751Z,2.10
2018-11-11T13:33:15.199Z,1.73
2018-11-11T13:35:44.380Z,1.80
2018-11-11T13:38:13.748Z,1.80
2018-11-11T13:40:42.431Z,2.27
2018-11-11T13:43:11.093Z,1.77
2018-11-11T13:45:40.085Z,2.20
2018-11-11T13:48:09.703Z,2.00
2018-11-11T13:50:40.115Z,1.97
2018-11-11T13:53:08.895Z,2.00
2018-11-11T13:55:37.817Z,1.80
2018-11-11T13:58:06.347Z,8.00
2018-11-11T14:00:35.706Z,3.03
2018-11-11T14:03:04.607Z,1.67
2018-11-11T14:05:32.934Z,1.60
2018-11-11T14:08:03.128Z,1.47
2018-11-11T14:10:32.647Z,1.87
2018-11-11T14:13:01.161Z,1.60
2018-11-11T14:15:29.864Z,1.80
2018-11-11T14:17:58.669Z,1.87
2018-11-11T14:20:27.040Z,1.67
2018-11-11T14:22:56.196Z,1.83
2018-11-11T14:25:27.935Z,2.23
2018-11-11T14:27:56.448Z,3.23
2018-11-11T14:30:28.186Z,3.63
2018-11-11T14:32:57.954Z,2.60
2018-11-11T14:35:26.639Z,5.43
2018-11-11T14:37:55.483Z,5.67
2018-11-11T14:40:25.281Z,5.17
2018-11-11T14:42:55.726Z,3.20
2018-11-11T14:45:26.183Z,2.00
2018-11-11T14:47:55.584Z,1.70
2018-11-11T14:50:24.854Z,1.77
2018-11-11T14:52:53.323Z,1.80
2018-11-11T14:55:25.856Z,1.97
2018-11-11T14:57:55.618Z,1.87
2018-11-11T15:00:28.160Z,2.13
2018-11-11T15:03:01.027Z,1.80
2018-11-11T15:05:29.724Z,2.00
2018-11-11T15:07:58.194Z,1.60
2018-11-11T15:10:26.549Z,1.83
2018-11-11T15:12:54.982Z,1.60
2018-11-11T15:15:25.859Z,1.47
2018-11-11T15:17:54.981Z,1.40
2018-11-11T15:20:24.319Z,1.87
2018-11-11T15:22:55.178Z,1.40
2018-11-11T15:25:24.997Z,2.10
2018-11-11T15:27:53.710Z,1.97
2018-11-11T15:30:27.861Z,2.03
2018-11-11T15:35:41.918Z,1.47
2018-11-11T15:38:13.259Z,1.80
2018-11-11T15:40:45.620Z,1.67
2018-11-11T15:43:14.470Z,2.27
2018-11-11T15:45:45.246Z,1.70
2018-11-11T15:48:14.003Z,1.85
2018-11-11T15:50:42.709Z,1.80
2018-11-11T15:53:11.700Z,5.80
2018-11-11T15:55:41.243Z,6.47
2018-11-11T15:58:10.134Z,3.85
2018-11-11T16:00:40.487Z,2.90
2018-11-11T16:03:09.796Z,3.05
2018-11-11T16:05:38.650Z,2.25
2018-11-11T16:08:07.546Z,2.33
2018-11-11T16:10:36.755Z,2.72
2018-11-11T16:13:05.730Z,2.10
2018-11-11T16:15:38.099Z,2.12
2018-11-11T16:18:10.242Z,2.30
2018-11-11T16:20:39.258Z,3.37
2018-11-11T16:26:13.369Z,2.00
2018-11-11T16:28:45.591Z,1.90
2018-11-11T16:31:16.808Z,2.40
2018-11-11T16:33:52.327Z,2.20
2018-11-11T16:36:21.150Z,2.10
2018-11-11T16:38:54.387Z,2.80
2018-11-11T16:41:24.522Z,3.25
2018-11-11T16:43:53.388Z,2.37
2018-11-11T16:49:13.727Z,2.70
2018-11-11T16:51:51.137Z,2.70
2018-11-11T16:54:21.213Z,2.40
2018-11-11T16:56:55.883Z,2.25
2018-11-11T16:59:25.425Z,3.12
2018-11-11T17:01:54.319Z,3.40
2018-11-11T17:04:24.779Z,2.80
2018-11-11T17:06:53.354Z,2.80
2018-11-11T17:09:21.984Z,2.42
2018-11-11T17:11:51.188Z,2.70
2018-11-11T17:14:20.097Z,2.47
2018-11-11T17:16:48.955Z,3.08
2018-11-11T17:19:17.487Z,3.52
2018-11-11T17:21:46.694Z,2.92
2018-11-11T17:24:15.278Z,2.47
2018-11-11T17:26:44.900Z,3.05
2018-11-11T17:29:22.134Z,3.17
2018-11-11T17:31:53.399Z,3.50
2018-11-11T17:34:24.044Z,3.90
2018-11-11T17:36:52.994Z,2.90
2018-11-11T17:39:22.104Z,3.17
2018-11-11T17:41:50.932Z,3.20
2018-11-11T17:44:19.885Z,2.95
2018-11-11T17:46:48.615Z,2.15
2018-11-11T17:49:17.503Z,2.37
2018-11-11T17:51:46.232Z,2.20
2018-11-11T17:54:15.229Z,2.00
2018-11-11T17:56:45.958Z,2.13
2018-11-11T17:59:15.256Z,2.60
2018-11-11T18:01:44.416Z,2.95
2018-11-11T18:04:13.369Z,3.70
2018-11-11T18:06:43.084Z,5.80
2018-11-11T18:09:12.101Z,6.23
2018-11-11T18:11:40.951Z,5.53
2018-11-11T18:14:10.167Z,5.33
2018-11-11T18:16:38.887Z,4.60
2018-11-11T18:19:07.656Z,4.50
2018-11-11T18:21:37.457Z,5.57
2018-11-11T18:24:06.896Z,5.58
2018-11-11T18:26:35.700Z,5.47
2018-11-11T18:29:05.058Z,5.05
2018-11-11T18:31:33.808Z,7.17
2018-11-11T18:34:02.689Z,5.25
2018-11-11T18:36:32.411Z,6.53
2018-11-11T18:39:01.500Z,6.47
2018-11-11T18:41:30.280Z,5.97
2018-11-11T18:44:01.545Z,6.60
2018-11-11T18:46:40.115Z,6.10
2018-11-11T18:49:09.504Z,6.42
2018-11-11T18:51:38.850Z,6.10
2018-11-11T18:54:07.288Z,7.20
2018-11-11T18:56:35.636Z,5.97
2018-11-11T18:59:04.684Z,5.92
2018-11-11T19:01:44.978Z,6.53
2018-11-11T19:04:17.657Z,5.90
2018-11-11T19:06:46.991Z,5.90
2018-11-11T19:09:18.309Z,6.45
2018-11-11T19:11:46.959Z,6.60
2018-11-11T19:14:15.202Z,6.92
2018-11-11T19:16:45.229Z,6.25
2018-11-11T19:19:15.151Z,6.85
2018-11-11T19:21:44.864Z,6.12
2018-11-11T19:24:13.589Z,6.28
2018-11-11T19:26:42.355Z,5.90
2018-11-11T19:29:11.447Z,6.25
2018-11-11T19:31:39.686Z,6.10
2018-11-11T19:34:08.046Z,6.20
2018-11-11T19:36:37.870Z,7.47
2018-11-11T19:39:08.821Z,6.75
2018-11-11T19:44:17.045Z,6.80
2018-11-11T19:46:46.281Z,6.30
2018-11-11T19:49:14.821Z,6.78
2018-11-11T19:51:43.657Z,7.55
2018-11-11T19:54:11.888Z,7.85
2018-11-11T19:56:40.164Z,7.87
2018-11-11T19:59:08.370Z,7.05
2018-11-11T20:01:36.714Z,7.60
2018-11-11T20:04:06.176Z,6.80
2018-11-11T20:06:34.576Z,7.60
2018-11-11T20:09:03.038Z,7.27
2018-11-11T20:11:31.636Z,6.75
2018-11-11T20:14:00.249Z,5.77
2018-11-11T20:16:28.752Z,7.00
2018-11-11T20:18:57.257Z,6.40
2018-11-11T20:21:25.525Z,6.50
2018-11-11T20:23:53.927Z,6.03
2018-11-11T20:26:22.197Z,5.80
2018-11-11T20:28:50.616Z,6.20
2018-11-11T20:31:19.102Z,6.80
2018-11-11T20:33:47.668Z,6.20
2018-11-11T20:36:16.102Z,5.87
2018-11-11T20:38:45.738Z,5.80
2018-11-11T20:41:14.167Z,6.12
2018-11-11T20:43:42.615Z,5.70
2018-11-11T20:46:10.880Z,5.80
2018-11-11T20:48:39.426Z,6.08
2018-11-11T20:51:09.163Z,6.07
2018-11-11T20:53:39.119Z,5.20
2018-11-11T20:56:07.640Z,6.13
2018-11-11T20:58:36.431Z,5.10
2018-11-11T21:01:08.905Z,6.13
2018-11-11T21:04:00.413Z,5.57
2018-11-11T21:06:29.972Z,5.25
2018-11-11T21:08:58.464Z,4.97
2018-11-11T21:11:26.969Z,5.43
2018-11-11T21:13:55.938Z,5.57
2018-11-11T21:16:24.190Z,5.00
2018-11-11T21:18:52.622Z,4.67
2018-11-11T21:21:20.854Z,4.87
2018-11-11T21:23:49.145Z,4.80
2018-11-11T21:26:17.426Z,4.23
2018-11-11T21:28:45.652Z,4.47
2018-11-11T21:31:14.142Z,5.00
2018-11-11T21:33:42.382Z,4.67
2018-11-11T21:36:10.594Z,5.33
2018-11-11T21:38:39.035Z,5.00
2018-11-11T21:41:07.390Z,4.80
2018-11-11T21:43:35.640Z,5.72
2018-11-11T21:46:03.866Z,6.20
2018-11-11T21:48:32.157Z,5.47
2018-11-11T21:51:00.402Z,5.70
2018-11-11T21:53:38.013Z,5.25
2018-11-11T21:56:06.783Z,5.62
2018-11-11T21:58:34.994Z,5.30
2018-11-11T22:01:03.249Z,5.40
2018-11-11T22:03:31.507Z,4.60
2018-11-11T22:05:59.751Z,5.28
2018-11-11T22:08:28.023Z,4.90
2018-11-11T22:10:56.239Z,5.10
2018-11-11T22:13:24.595Z,5.30
2018-11-11T22:15:53.170Z,5.40
2018-11-11T22:18:21.346Z,5.30
2018-11-11T22:20:49.655Z,4.80
2018-11-11T22:23:17.903Z,5.55
2018-11-11T22:25:46.141Z,5.57
2018-11-11T22:28:14.454Z,4.90
2018-11-11T22:30:42.602Z,5.07
2018-11-11T22:33:10.862Z,5.40
2018-11-11T22:35:39.073Z,4.67
2018-11-11T22:38:07.481Z,4.20
2018-11-11T22:40:36.123Z,4.50
2018-11-11T22:43:04.427Z,4.47
2018-11-11T22:45:32.713Z,4.15
2018-11-11T22:48:00.985Z,4.13
2018-11-11T22:50:29.180Z,4.37
2018-11-11T22:52:57.387Z,4.20
2018-11-11T22:55:25.629Z,4.33
2018-11-11T22:57:53.818Z,4.60
2018-11-11T23:00:27.668Z,4.13
2018-11-11T23:02:55.988Z,3.60
2018-11-11T23:05:24.709Z,3.30
2018-11-11T23:07:53.157Z,3.20
2018-11-11T23:10:21.513Z,3.15
2018-11-11T23:12:49.719Z,3.20
2018-11-11T23:15:18.986Z,3.12
2018-11-11T23:17:47.214Z,2.98
2018-11-11T23:20:17.687Z,2.73
2018-11-11T23:22:45.916Z,2.70
2018-11-11T23:25:15.431Z,3.57
2018-11-11T23:27:43.861Z,2.58
2018-11-11T23:30:17.896Z,2.80
2018-11-11T23:32:46.518Z,2.50
2018-11-11T23:35:14.727Z,3.15
2018-11-11T23:37:43.689Z,2.25
2018-11-11T23:40:13.169Z,2.90
2018-11-11T23:42:42.266Z,2.52
2018-11-11T23:45:10.500Z,2.50
2018-11-11T23:47:38.683Z,2.58
2018-11-11T23:50:09.107Z,3.17
2018-11-11T23:52:37.309Z,2.53
2018-11-11T23:55:11.647Z,2.80
2018-11-11T23:57:40.057Z,2.90
